createdAt,value
2023-01-03T00:02:13.212Z,102631.00
2023-01-03T00:04:44.472Z,102631.00
2023-01-03T00:07:14.684Z,102629.69
2023-01-03T00:09:41.672Z,102622.34
2023-01-03T00:12:30.169Z,102629.41
2023-01-03T00:14:59.517Z,102624.63
2023-01-03T00:17:27.795Z,102631.13
2023-01-03T00:19:55.322Z,102622.41
2023-01-03T00:22:22.343Z,102622.97
2023-01-03T00:24:51.928Z,102628.66
2023-01-03T00:27:19.218Z,102632.13
2023-01-03T00:29:46.448Z,102625.63
2023-01-03T00:32:13.681Z,102625.63
2023-01-03T00:34:44.281Z,102626.69
2023-01-03T00:37:12.328Z,102628.06
2023-01-03T00:39:39.874Z,102625.56
2023-01-03T00:42:07.848Z,102627.75
2023-01-03T00:44:34.923Z,102627.16
2023-01-03T00:47:02.608Z,102625.03
2023-01-03T00:49:30.159Z,102623.94
2023-01-03T00:51:57.662Z,102631.84
2023-01-03T00:54:24.894Z,102620.63
2023-01-03T00:56:52.642Z,102632.03
2023-01-03T00:59:21.831Z,102632.53
2023-01-03T01:01:56.047Z,102635.03
2023-01-03T01:04:31.324Z,102636.09
2023-01-03T01:07:03.811Z,102634.72
2023-01-03T01:09:33.401Z,102629.50
2023-01-03T01:12:00.539Z,102633.88
2023-01-03T01:14:29.384Z,102627.28
2023-01-03T01:17:02.432Z,102633.81
2023-01-03T01:19:32.959Z,102635.41
2023-01-03T01:22:00.303Z,102631.59
2023-01-03T01:24:27.680Z,102631.28
2023-01-03T01:26:57.175Z,102636.72
2023-01-03T01:29:25.160Z,102625.84
2023-01-03T01:31:52.559Z,102627.97
2023-01-03T01:34:19.753Z,102622.50
2023-01-03T01:36:47.366Z,102628.69
2023-01-03T01:39:26.718Z,102619.94
2023-01-03T01:42:21.687Z,102620.47
2023-01-03T01:45:01.262Z,102615.53
2023-01-03T01:47:46.523Z,102616.34
2023-01-03T01:50:26.067Z,102616.84
2023-01-03T01:53:19.816Z,102617.34
2023-01-03T01:55:51.809Z,102612.97
2023-01-03T01:58:21.127Z,102614.06
2023-01-03T02:00:48.274Z,102606.13
2023-01-03T02:03:15.398Z,102608.03
2023-01-03T02:05:46.589Z,102603.69
2023-01-03T02:08:14.142Z,102601.19
2023-01-03T02:10:41.043Z,102608.00
2023-01-03T02:13:42.712Z,102606.63
2023-01-03T02:16:19.931Z,102600.97
2023-01-03T02:19:05.893Z,102603.09
2023-01-03T02:22:02.869Z,102593.22
2023-01-03T02:24:38.775Z,102593.66
2023-01-03T02:27:08.784Z,102599.28
2023-01-03T02:30:07.780Z,102597.81
2023-01-03T02:32:40.835Z,102595.59
2023-01-03T02:35:23.431Z,102594.53
2023-01-03T02:37:57.435Z,102593.44
2023-01-03T02:40:41.516Z,102596.81
2023-01-03T02:43:16.648Z,102593.59
2023-01-03T02:46:00.246Z,102583.47
2023-01-03T02:49:01.571Z,102587.78
2023-01-03T02:51:35.272Z,102588.75
2023-01-03T02:54:05.260Z,102584.97
2023-01-03T02:57:02.699Z,102580.34
2023-01-03T02:59:53.528Z,102579.63
2023-01-03T03:02:24.859Z,102585.28
2023-01-03T03:04:56.924Z,102582.56
2023-01-03T03:07:29.140Z,102580.34
2023-01-03T03:10:15.558Z,102572.94
2023-01-03T03:13:04.548Z,102572.38
2023-01-03T03:15:38.121Z,102583.50
2023-01-03T03:18:14.755Z,102577.56
2023-01-03T03:21:00.302Z,102574.59
2023-01-03T03:23:50.463Z,102572.69
2023-01-03T03:26:23.173Z,102574.59
2023-01-03T03:28:56.756Z,102586.47
2023-01-03T03:31:27.844Z,102583.91
2023-01-03T03:34:18.689Z,102580.06
2023-01-03T03:37:00.408Z,102586.72
2023-01-03T03:39:47.761Z,102591.00
2023-01-03T03:42:50.309Z,102581.69
2023-01-03T03:45:25.157Z,102581.13
2023-01-03T03:48:02.993Z,102591.75
2023-01-03T03:50:42.827Z,102585.50
2023-01-03T03:53:11.587Z,102585.97
2023-01-03T03:56:07.606Z,102591.75
2023-01-03T03:58:40.693Z,102593.91
2023-01-03T04:01:11.265Z,102594.22
2023-01-03T04:03:41.283Z,102594.22
2023-01-03T04:06:24.868Z,102593.06
2023-01-03T04:08:51.953Z,102598.97
2023-01-03T04:11:19.220Z,102596.19
2023-01-03T04:13:46.525Z,102596.66
2023-01-03T04:16:13.578Z,102597.97
2023-01-03T04:18:40.787Z,102588.19
2023-01-03T04:21:07.788Z,102589.00
2023-01-03T04:23:34.908Z,102593.28
2023-01-03T04:26:02.077Z,102596.00
2023-01-03T04:28:29.105Z,102590.63
2023-01-03T04:30:56.314Z,102592.03
2023-01-03T04:33:23.308Z,102604.81
2023-01-03T04:35:51.150Z,102595.94
2023-01-03T04:38:18.330Z,102593.22
2023-01-03T04:40:45.470Z,102603.28
2023-01-03T04:43:30.933Z,102606.72
2023-01-03T04:45:58.462Z,102604.22
2023-01-03T04:48:25.566Z,102603.66
2023-01-03T04:50:57.026Z,102610.16
2023-01-03T04:53:26.248Z,102616.44
2023-01-03T04:55:54.405Z,102612.81
2023-01-03T04:58:21.582Z,102619.31
2023-01-03T05:00:48.886Z,102619.81
2023-01-03T05:03:16.969Z,102623.91
2023-01-03T05:05:46.975Z,102626.22
2023-01-03T05:08:14.137Z,102624.31
2023-01-03T05:10:41.740Z,102623.03
2023-01-03T05:13:09.211Z,102627.38
2023-01-03T05:15:38.544Z,102627.31
2023-01-03T05:18:06.823Z,102630.84
2023-01-03T05:20:55.244Z,102632.25
2023-01-03T05:23:41.870Z,102630.25
2023-01-03T05:26:15.468Z,102637.44
2023-01-03T05:28:45.264Z,102638.88
2023-01-03T05:31:12.511Z,102628.94
2023-01-03T05:33:40.670Z,102641.59
2023-01-03T05:36:09.344Z,102636.69
2023-01-03T05:38:37.761Z,102642.63
2023-01-03T05:41:05.261Z,102642.53
2023-01-03T05:43:32.350Z,102639.91
2023-01-03T05:45:59.581Z,102644.53
2023-01-03T05:48:27.238Z,102646.19
2023-01-03T05:50:58.065Z,102655.16
2023-01-03T05:53:25.728Z,102661.88
2023-01-03T05:55:53.052Z,102657.75
2023-01-03T05:58:20.212Z,102654.97
2023-01-03T06:00:47.632Z,102656.59
2023-01-03T06:03:14.776Z,102656.94
2023-01-03T06:05:49.526Z,102660.25
2023-01-03T06:08:17.978Z,102658.94
2023-01-03T06:10:45.036Z,102660.34
2023-01-03T06:13:12.490Z,102652.19
2023-01-03T06:15:39.528Z,102656.66
2023-01-03T06:18:07.679Z,102651.69
2023-01-03T06:20:35.458Z,102654.75
2023-01-03T06:23:02.562Z,102650.13
2023-01-03T06:25:29.527Z,102655.91
2023-01-03T06:27:56.502Z,102651.38
2023-01-03T06:30:23.520Z,102647.44
2023-01-03T06:32:50.727Z,102653.03
2023-01-03T06:35:17.761Z,102652.38
2023-01-03T06:37:44.904Z,102650.59
2023-01-03T06:40:12.265Z,102651.56
2023-01-03T06:42:45.325Z,102655.50
2023-01-03T06:45:32.412Z,102660.81
2023-01-03T06:48:23.376Z,102657.69
2023-01-03T06:51:09.473Z,102661.66
2023-01-03T06:53:39.576Z,102668.63
2023-01-03T06:56:07.340Z,102668.19
2023-01-03T06:58:35.186Z,102669.06
2023-01-03T07:01:04.286Z,102671.66
2023-01-03T07:03:32.388Z,102676.91
2023-01-03T07:05:59.641Z,102679.16
2023-01-03T07:08:28.236Z,102681.16
2023-01-03T07:10:55.502Z,102686.91
2023-01-03T07:13:41.489Z,102684.56
2023-01-03T07:16:15.045Z,102677.00
2023-01-03T07:18:42.447Z,102683.03
2023-01-03T07:21:10.107Z,102682.03
2023-01-03T07:23:37.815Z,102686.16
2023-01-03T07:26:05.850Z,102685.13
2023-01-03T07:28:32.978Z,102686.53
2023-01-03T07:31:05.622Z,102680.06
2023-01-03T07:33:33.691Z,102689.66
2023-01-03T07:36:11.259Z,102680.94
2023-01-03T07:38:41.207Z,102688.66
2023-01-03T07:41:09.157Z,102687.31
2023-01-03T07:43:37.636Z,102684.91
2023-01-03T07:46:29.743Z,102681.69
2023-01-03T07:48:59.307Z,102687.50
2023-01-03T07:51:26.318Z,102680.53
2023-01-03T07:53:53.680Z,102677.00
2023-01-03T07:56:22.629Z,102678.47
2023-01-03T07:58:52.135Z,102675.50
2023-01-03T08:01:22.619Z,102665.69
2023-01-03T08:03:50.814Z,102679.34
2023-01-03T08:06:21.136Z,102678.28
2023-01-03T08:09:11.119Z,102679.66
2023-01-03T08:11:57.422Z,102691.47
2023-01-03T08:14:26.558Z,102681.34
2023-01-03T08:16:55.307Z,102687.63
2023-01-03T08:19:22.824Z,102685.75
2023-01-03T08:21:49.985Z,102688.47
2023-01-03T08:24:17.102Z,102701.31
2023-01-03T08:26:44.297Z,102691.78
2023-01-03T08:29:11.333Z,102692.56
2023-01-03T08:31:45.065Z,102691.53
2023-01-03T08:34:18.639Z,102696.16
2023-01-03T08:37:14.390Z,102693.69
2023-01-03T08:39:46.435Z,102695.56
2023-01-03T08:42:17.392Z,102693.03
2023-01-03T08:44:45.459Z,102702.66
2023-01-03T08:47:15.499Z,102695.53
2023-01-03T08:49:43.457Z,102698.25
2023-01-03T08:52:10.625Z,102701.78
2023-01-03T08:54:39.432Z,102700.38
2023-01-03T08:57:06.678Z,102704.19
2023-01-03T08:59:33.738Z,102697.53
2023-01-03T09:02:02.138Z,102704.13
2023-01-03T09:04:29.411Z,102696.41
2023-01-03T09:06:57.074Z,102707.38
2023-01-03T09:09:24.146Z,102698.63
2023-01-03T09:11:51.549Z,102707.16
2023-01-03T09:14:18.666Z,102697.50
2023-01-03T09:16:49.310Z,102703.72
2023-01-03T09:19:17.254Z,102703.09
2023-01-03T09:21:45.871Z,102705.75
2023-01-03T09:24:12.931Z,102703.19
2023-01-03T09:26:40.037Z,102690.72
2023-01-03T09:29:07.050Z,102698.63
2023-01-03T09:31:35.491Z,102695.47
2023-01-03T09:34:05.767Z,102701.06
2023-01-03T09:36:34.789Z,102695.09
2023-01-03T09:39:01.897Z,102694.50
2023-01-03T09:41:29.431Z,102681.31
2023-01-03T09:44:09.167Z,102679.88
2023-01-03T09:46:37.669Z,102680.28
2023-01-03T09:49:07.406Z,102684.53
2023-01-03T09:52:00.989Z,102668.56
2023-01-03T09:54:53.274Z,102667.34
2023-01-03T09:57:46.505Z,102669.59
2023-01-03T10:00:41.280Z,102671.34
2023-01-03T10:03:52.526Z,102657.75
2023-01-03T10:06:38.275Z,102659.13
2023-01-03T10:09:26.482Z,102662.34
2023-01-03T10:12:17.199Z,102657.25
2023-01-03T10:14:49.951Z,102661.25
2023-01-03T10:17:36.161Z,102655.13
2023-01-03T10:20:32.944Z,102656.88
2023-01-03T10:23:01.408Z,102648.81
2023-01-03T10:25:29.680Z,102648.56
2023-01-03T10:28:04.903Z,102640.94
2023-01-03T10:30:56.594Z,102636.00
2023-01-03T10:33:54.387Z,102640.00
2023-01-03T10:36:22.516Z,102629.75
2023-01-03T10:39:06.345Z,102625.81
2023-01-03T10:41:47.974Z,102623.88
2023-01-03T10:44:31.393Z,102629.53
2023-01-03T10:47:18.580Z,102620.44
2023-01-03T10:49:47.290Z,102625.00
2023-01-03T10:52:20.308Z,102627.09
2023-01-03T10:54:54.906Z,102625.28
2023-01-03T10:57:49.093Z,102624.75
2023-01-03T11:00:23.969Z,102625.09
2023-01-03T11:02:51.415Z,102620.56
2023-01-03T11:05:21.718Z,102616.38
2023-01-03T11:07:57.955Z,102620.31
2023-01-03T11:10:32.984Z,102615.88
2023-01-03T11:13:00.102Z,102613.19
2023-01-03T11:15:39.070Z,102611.13
2023-01-03T11:18:17.956Z,102605.75
2023-01-03T11:21:05.942Z,102600.28
2023-01-03T11:23:58.238Z,102598.81
2023-01-03T11:29:49.162Z,102585.41
2023-01-03T11:32:34.637Z,102593.56
2023-01-03T11:35:24.855Z,102584.97
2023-01-03T11:37:55.332Z,102578.03
2023-01-03T11:40:30.467Z,102583.06
2023-01-03T11:42:57.481Z,102578.72
2023-01-03T11:45:49.022Z,102569.78
2023-01-03T11:48:47.225Z,102568.50
2023-01-03T11:51:32.510Z,102568.31
2023-01-03T11:54:05.552Z,102566.56
2023-01-03T11:56:45.098Z,102560.78
2023-01-03T11:59:48.055Z,102565.38
2023-01-03T12:02:33.636Z,102562.47
2023-01-03T12:05:28.422Z,102552.03
2023-01-03T12:08:08.275Z,102555.53
2023-01-03T12:11:11.177Z,102543.47
2023-01-03T12:13:44.141Z,102546.06
2023-01-03T12:16:19.390Z,102547.19
2023-01-03T12:19:11.912Z,102537.38
2023-01-03T12:21:48.143Z,102535.66
2023-01-03T12:24:30.358Z,102533.75
2023-01-03T12:27:04.887Z,102528.84
2023-01-03T12:29:49.251Z,102536.03
2023-01-03T12:32:24.192Z,102518.44
2023-01-03T12:35:13.790Z,102534.19
2023-01-03T12:37:42.077Z,102518.34
2023-01-03T12:40:17.530Z,102519.09
2023-01-03T12:43:14.880Z,102512.97
2023-01-03T12:45:50.384Z,102519.06
2023-01-03T12:48:33.247Z,102512.28
2023-01-03T12:51:00.919Z,102511.22
2023-01-03T12:53:35.148Z,102498.72
2023-01-03T12:56:23.806Z,102500.31
2023-01-03T12:59:19.049Z,102498.31
2023-01-03T13:01:53.860Z,102495.56
2023-01-03T13:04:29.461Z,102504.69
2023-01-03T13:07:05.568Z,102497.72
2023-01-03T13:09:43.903Z,102498.44
2023-01-03T13:12:16.844Z,102489.78
2023-01-03T13:14:53.769Z,102494.16
2023-01-03T13:17:27.090Z,102491.84
2023-01-03T13:19:58.423Z,102492.75
2023-01-03T13:22:28.560Z,102495.69
2023-01-03T13:25:15.733Z,102486.00
2023-01-03T13:27:51.344Z,102492.31
2023-01-03T13:30:23.543Z,102487.63
2023-01-03T13:33:06.194Z,102479.31
2023-01-03T13:35:58.689Z,102482.94
2023-01-03T13:38:36.038Z,102484.94
2023-01-03T13:41:27.599Z,102480.84
2023-01-03T13:44:06.945Z,102478.16
2023-01-03T13:46:34.992Z,102476.25
2023-01-03T13:49:08.347Z,102472.63
2023-01-03T13:51:44.238Z,102477.28
2023-01-03T13:54:11.362Z,102475.19
2023-01-03T13:56:44.582Z,102483.88
2023-01-03T13:59:14.372Z,102479.22
2023-01-03T14:01:44.263Z,102481.66
2023-01-03T14:04:46.939Z,102479.72
2023-01-03T14:07:44.232Z,102482.84
2023-01-03T14:10:48.460Z,102481.84
2023-01-03T14:13:37.992Z,102478.13
2023-01-03T14:16:17.425Z,102474.03
2023-01-03T14:18:58.191Z,102479.69
2023-01-03T14:21:36.448Z,102483.25
2023-01-03T14:24:04.554Z,102479.97
2023-01-03T14:26:32.204Z,102478.97
2023-01-03T14:28:59.472Z,102478.69
2023-01-03T14:31:28.355Z,102484.53
2023-01-03T14:34:00.700Z,102489.44
2023-01-03T14:36:28.625Z,102495.16
2023-01-03T14:38:59.648Z,102489.97
2023-01-03T14:41:32.653Z,102495.97
2023-01-03T14:44:01.613Z,102497.03
2023-01-03T14:46:30.887Z,102495.69
2023-01-03T14:49:03.464Z,102499.31
2023-01-03T14:51:34.459Z,102490.97
2023-01-03T14:54:03.750Z,102497.78
2023-01-03T14:56:31.311Z,102488.72
2023-01-03T14:58:59.134Z,102497.03
2023-01-03T15:01:29.052Z,102502.28
2023-01-03T15:03:56.972Z,102508.38
2023-01-03T15:06:28.659Z,102503.72
2023-01-03T15:09:19.501Z,102507.06
2023-01-03T15:11:57.653Z,102512.06
2023-01-03T15:14:28.536Z,102508.66
2023-01-03T15:17:13.651Z,102514.22
2023-01-03T15:19:52.617Z,102517.78
2023-01-03T15:22:22.947Z,102517.53
2023-01-03T15:24:59.420Z,102511.91
2023-01-03T15:27:38.632Z,102513.66
2023-01-03T15:30:15.542Z,102517.22
2023-01-03T15:33:03.535Z,102516.22
2023-01-03T15:35:37.271Z,102517.34
2023-01-03T15:38:13.490Z,102520.16
2023-01-03T15:40:41.164Z,102522.13
2023-01-03T15:43:23.764Z,102520.00
2023-01-03T15:46:04.578Z,102523.59
2023-01-03T15:48:36.877Z,102527.19
2023-01-03T15:51:05.673Z,102528.31
2023-01-03T15:53:43.708Z,102535.69
2023-01-03T15:56:22.960Z,102528.00
2023-01-03T15:58:53.520Z,102531.31
2023-01-03T16:01:21.875Z,102529.44
2023-01-03T16:03:51.178Z,102533.03
2023-01-03T16:06:18.833Z,102530.59
2023-01-03T16:08:46.044Z,102537.97
2023-01-03T16:11:31.586Z,102543.75
2023-01-03T16:14:03.190Z,102544.59
2023-01-03T16:16:43.282Z,102542.69
2023-01-03T16:19:19.557Z,102547.31
2023-01-03T16:22:24.040Z,102546.50
2023-01-03T16:24:36.168Z,102547.63
2023-01-03T16:27:13.291Z,102553.91
2023-01-03T16:29:40.512Z,102548.72
2023-01-03T16:32:18.158Z,102555.03
2023-01-03T16:34:45.409Z,102549.00
2023-01-03T16:37:12.836Z,102549.81
2023-01-03T16:39:47.455Z,102547.09
2023-01-03T16:42:15.454Z,102553.38
2023-01-03T16:44:46.895Z,102555.56
2023-01-03T16:47:40.217Z,102559.13
2023-01-03T16:50:14.465Z,102561.84
2023-01-03T16:52:46.570Z,102559.97
2023-01-03T16:55:20.960Z,102565.13
2023-01-03T16:57:53.819Z,102566.50
2023-01-03T17:00:27.402Z,102567.59
2023-01-03T17:02:59.680Z,102567.06
2023-01-03T17:05:36.277Z,102570.06
2023-01-03T17:08:28.118Z,102578.53
2023-01-03T17:10:57.411Z,102581.81
2023-01-03T17:13:34.435Z,102584.53
2023-01-03T17:16:03.604Z,102579.09
2023-01-03T17:18:33.242Z,102577.44
2023-01-03T17:21:01.948Z,102585.38
2023-01-03T17:23:32.827Z,102583.16
2023-01-03T17:25:59.967Z,102585.09
2023-01-03T17:28:27.088Z,102583.72
2023-01-03T17:30:56.898Z,102583.19
2023-01-03T17:33:30.390Z,102589.47
2023-01-03T17:35:59.374Z,102585.59
2023-01-03T17:38:27.438Z,102586.72
2023-01-03T17:40:56.650Z,102594.09
2023-01-03T17:43:25.434Z,102598.19
2023-01-03T17:46:20.598Z,102598.72
2023-01-03T17:49:09.509Z,102602.00
2023-01-03T17:51:36.690Z,102593.78
2023-01-03T17:54:04.018Z,102600.34
2023-01-03T17:56:31.159Z,102595.19
2023-01-03T17:58:58.224Z,102608.28
2023-01-03T18:01:25.571Z,102597.63
2023-01-03T18:03:52.925Z,102604.16
2023-01-03T18:06:22.905Z,102610.72
2023-01-03T18:08:52.000Z,102609.09
2023-01-03T18:11:27.094Z,102609.09
2023-01-03T18:13:54.310Z,102603.63
2023-01-03T18:16:23.000Z,102609.91
2023-01-03T18:18:50.597Z,102610.97
2023-01-03T18:21:24.001Z,102607.97
2023-01-03T18:24:04.741Z,102611.00
2023-01-03T18:26:44.170Z,102611.78
2023-01-03T18:29:14.978Z,102620.25
2023-01-03T18:31:42.989Z,102610.97
2023-01-03T18:34:14.707Z,102619.16
2023-01-03T18:36:50.985Z,102612.88
2023-01-03T18:39:28.848Z,102621.06
2023-01-03T18:42:19.949Z,102614.22
2023-01-03T18:44:47.189Z,102619.94
2023-01-03T18:47:15.085Z,102618.59
2023-01-03T18:49:42.263Z,102618.84
2023-01-03T18:52:39.587Z,102631.38
2023-01-03T18:55:13.802Z,102623.97
2023-01-03T18:57:41.105Z,102633.00
2023-01-03T19:00:19.176Z,102634.91
2023-01-03T19:02:46.928Z,102633.53
2023-01-03T19:05:14.188Z,102634.59
2023-01-03T19:07:42.774Z,102644.16
2023-01-03T19:10:19.411Z,102646.59
2023-01-03T19:12:47.162Z,102645.78
2023-01-03T19:15:20.193Z,102643.88
2023-01-03T19:17:47.384Z,102652.63
2023-01-03T19:20:14.533Z,102647.47
2023-01-03T19:22:44.704Z,102659.50
2023-01-03T19:25:26.460Z,102657.06
2023-01-03T19:27:57.641Z,102647.28
2023-01-03T19:30:38.265Z,102648.66
2023-01-03T19:33:11.411Z,102650.88
2023-01-03T19:35:38.562Z,102638.63
2023-01-03T19:38:05.759Z,102650.09
2023-01-03T19:40:35.762Z,102650.09
2023-01-03T19:43:03.255Z,102653.94
2023-01-03T19:45:36.223Z,102654.25
2023-01-03T19:48:24.560Z,102662.16
2023-01-03T19:50:53.204Z,102656.44
2023-01-03T19:53:20.365Z,102658.31
2023-01-03T19:55:52.228Z,102655.31
2023-01-03T19:58:29.569Z,102655.31
2023-01-03T20:00:57.440Z,102659.44
2023-01-03T20:03:34.434Z,102654.50
2023-01-03T20:06:02.260Z,102654.25
2023-01-03T20:08:29.348Z,102656.16
2023-01-03T20:10:56.853Z,102651.50
2023-01-03T20:13:26.561Z,102658.06
2023-01-03T20:15:57.625Z,102660.25
2023-01-03T20:18:36.308Z,102658.91
2023-01-03T20:21:21.944Z,102657.84
2023-01-03T20:24:01.901Z,102640.59
2023-01-03T20:26:31.705Z,102648.78
2023-01-03T20:29:00.356Z,102651.25
2023-01-03T20:31:30.535Z,102648.53
2023-01-03T20:33:59.483Z,102654.81
2023-01-03T20:36:38.371Z,102652.63
2023-01-03T20:39:14.313Z,102651.25
2023-01-03T20:41:41.747Z,102640.84
2023-01-03T20:44:10.551Z,102649.34
2023-01-03T20:46:39.326Z,102656.72
2023-01-03T20:49:15.210Z,102652.63
2023-01-03T20:51:42.687Z,102649.31
2023-01-03T20:54:10.379Z,102647.69
2023-01-03T20:56:37.734Z,102650.69
2023-01-03T20:59:05.970Z,102656.44
2023-01-03T21:01:33.429Z,102652.06
2023-01-03T21:04:01.182Z,102653.72
2023-01-03T21:06:30.082Z,102652.88
2023-01-03T21:08:58.352Z,102654.25
2023-01-03T21:11:31.258Z,102652.06
2023-01-03T21:14:01.339Z,102654.50
2023-01-03T21:16:36.720Z,102651.75
2023-01-03T21:19:21.321Z,102641.66
2023-01-03T21:21:51.114Z,102650.91
2023-01-03T21:24:20.507Z,102652.81
2023-01-03T21:26:48.102Z,102645.97
2023-01-03T21:29:15.681Z,102650.06
2023-01-03T21:31:44.002Z,102645.16
2023-01-03T21:34:18.722Z,102646.75
2023-01-03T21:36:46.118Z,102641.28
2023-01-03T21:39:14.268Z,102643.44
2023-01-03T21:42:01.961Z,102641.53
2023-01-03T21:44:29.267Z,102644.22
2023-01-03T21:46:57.075Z,102649.94
2023-01-03T21:49:24.647Z,102646.34
2023-01-03T21:51:53.625Z,102638.94
2023-01-03T21:54:23.410Z,102641.66
2023-01-03T21:56:50.585Z,102644.09
2023-01-03T21:59:18.464Z,102638.31
2023-01-03T22:02:04.987Z,102637.22
2023-01-03T22:04:36.926Z,102626.00
2023-01-03T22:07:04.025Z,102633.91
2023-01-03T22:09:51.327Z,102632.81
2023-01-03T22:12:19.533Z,102630.59
2023-01-03T22:14:47.147Z,102632.75
2023-01-03T22:17:14.575Z,102629.50
2023-01-03T22:19:41.979Z,102631.94
2023-01-03T22:22:09.330Z,102628.88
2023-01-03T22:24:36.384Z,102626.97
2023-01-03T22:27:03.690Z,102626.38
2023-01-03T22:29:30.677Z,102630.72
2023-01-03T22:31:57.860Z,102624.16
2023-01-03T22:34:24.931Z,102623.88
2023-01-03T22:36:52.062Z,102620.56
2023-01-03T22:39:19.047Z,102616.22
2023-01-03T22:41:46.098Z,102618.66
2023-01-03T22:44:13.272Z,102616.69
2023-01-03T22:46:40.455Z,102621.84
2023-01-03T22:49:07.743Z,102615.84
2023-01-03T22:51:34.800Z,102612.81
2023-01-03T22:54:01.851Z,102616.38
2023-01-03T22:56:29.190Z,102615.25
2023-01-03T22:58:56.329Z,102615.78
2023-01-03T23:01:28.206Z,102617.97
2023-01-03T23:04:00.268Z,102612.25
2023-01-03T23:06:29.452Z,102611.66
2023-01-03T23:08:57.580Z,102617.69
2023-01-03T23:11:45.338Z,102614.41
2023-01-03T23:14:16.609Z,102606.75
2023-01-03T23:16:44.242Z,102609.22
2023-01-03T23:19:14.283Z,102619.31
2023-01-03T23:21:41.815Z,102608.41
2023-01-03T23:24:23.359Z,102610.31
2023-01-03T23:26:51.978Z,102609.75
2023-01-03T23:29:19.553Z,102600.47
2023-01-03T23:31:46.699Z,102601.84
2023-01-03T23:34:13.865Z,102600.19
2023-01-03T23:36:43.501Z,102595.81
2023-01-03T23:39:15.501Z,102599.13
2023-01-03T23:41:42.747Z,102590.94
2023-01-03T23:44:09.911Z,102594.72
2023-01-03T23:46:37.252Z,102588.97
2023-01-03T23:49:04.358Z,102584.03
2023-01-03T23:51:31.561Z,102589.47
2023-01-03T23:53:59.411Z,102589.41
2023-01-03T23:56:26.592Z,102584.75
2023-01-03T23:58:53.673Z,102591.25
